createdAt,value
2023-04-20T00:00:22.038Z,4.84
2023-04-20T00:02:48.742Z,4.87
2023-04-20T00:05:15.374Z,4.87
2023-04-20T00:07:41.888Z,4.85
2023-04-20T00:10:09.093Z,4.84
2023-04-20T00:12:35.864Z,4.82
2023-04-20T00:15:02.515Z,4.75
2023-04-20T00:17:28.926Z,4.70
2023-04-20T00:19:55.345Z,4.65
2023-04-20T00:22:21.714Z,4.62
2023-04-20T00:24:48.120Z,4.62
2023-04-20T00:27:14.516Z,4.61
2023-04-20T00:29:41.029Z,4.58
2023-04-20T00:32:07.428Z,4.60
2023-04-20T00:34:33.829Z,4.58
2023-04-20T00:37:00.912Z,4.57
2023-04-20T00:39:27.436Z,4.57
2023-04-20T00:41:54.242Z,4.57
2023-04-20T00:44:20.691Z,4.57
2023-04-20T00:46:47.149Z,4.55
2023-04-20T00:49:13.629Z,4.49
2023-04-20T00:51:40.145Z,4.45
2023-04-20T00:54:07.012Z,4.40
2023-04-20T00:56:34.053Z,4.39
2023-04-20T00:59:01.806Z,4.31
2023-04-20T01:01:29.025Z,4.27
2023-04-20T01:03:55.754Z,4.24
2023-04-20T01:06:22.429Z,4.19
2023-04-20T01:08:51.809Z,4.12
2023-04-20T01:11:18.492Z,4.13
2023-04-20T01:13:45.348Z,4.12
2023-04-20T01:16:12.178Z,4.12
2023-04-20T01:18:47.187Z,4.17
2023-04-20T01:21:14.885Z,4.19
2023-04-20T01:23:41.353Z,4.18
2023-04-20T01:26:09.316Z,4.19
2023-04-20T01:28:35.946Z,4.18
2023-04-20T01:31:04.141Z,4.25
2023-04-20T01:33:31.939Z,4.24
2023-04-20T01:35:58.365Z,4.22
2023-04-20T01:38:25.803Z,4.18
2023-04-20T01:40:52.908Z,4.05
2023-04-20T01:43:22.418Z,3.95
2023-04-20T01:45:48.938Z,3.79
2023-04-20T01:48:15.619Z,3.77
2023-04-20T01:50:42.216Z,3.70
2023-04-20T01:53:08.687Z,3.62
2023-04-20T01:55:35.210Z,3.53
2023-04-20T01:58:01.637Z,3.50
2023-04-20T02:00:28.103Z,3.46
2023-04-20T02:03:53.923Z,3.46
2023-04-20T02:06:21.070Z,3.43
2023-04-20T02:08:47.831Z,3.41
2023-04-20T02:11:14.364Z,3.35
2023-04-20T02:13:40.904Z,3.32
2023-04-20T02:16:07.540Z,3.29
2023-04-20T02:18:34.041Z,3.20
2023-04-20T02:21:01.354Z,3.21
2023-04-20T02:23:27.921Z,3.17
2023-04-20T02:25:55.538Z,3.16
2023-04-20T02:28:22.007Z,3.15
2023-04-20T02:30:48.516Z,3.13
2023-04-20T02:33:14.982Z,3.14
2023-04-20T02:35:41.378Z,3.12
2023-04-20T02:38:10.670Z,3.13
2023-04-20T02:40:38.661Z,3.18
2023-04-20T02:43:05.863Z,3.18
2023-04-20T02:45:34.184Z,3.25
2023-04-20T02:48:00.862Z,3.29
2023-04-20T02:50:30.697Z,3.35
2023-04-20T02:53:23.276Z,3.42
2023-04-20T02:55:57.908Z,3.46
2023-04-20T02:58:36.051Z,3.49
2023-04-20T03:01:25.742Z,3.50
2023-04-20T03:04:00.589Z,3.50
2023-04-20T03:06:27.819Z,3.51
2023-04-20T03:08:56.556Z,3.53
2023-04-20T03:11:52.871Z,3.53
2023-04-20T03:14:34.699Z,3.51
2023-04-20T03:17:02.573Z,3.50
2023-04-20T03:19:29.008Z,3.48
2023-04-20T03:21:55.660Z,3.46
2023-04-20T03:24:22.772Z,3.44
2023-04-20T03:26:49.492Z,3.37
2023-04-20T03:29:19.274Z,3.41
2023-04-20T03:31:46.461Z,3.40
2023-04-20T03:34:12.946Z,3.39
2023-04-20T03:36:40.045Z,3.38
2023-04-20T03:39:06.861Z,3.34
2023-04-20T03:41:33.327Z,3.31
2023-04-20T03:43:59.921Z,3.33
2023-04-20T03:46:26.767Z,3.30
2023-04-20T03:48:53.294Z,3.32
2023-04-20T03:51:19.738Z,3.33
2023-04-20T03:53:46.219Z,3.35
2023-04-20T03:56:13.644Z,3.38
2023-04-20T03:58:40.217Z,3.39
2023-04-20T04:01:13.340Z,3.37
2023-04-20T04:03:44.669Z,3.33
2023-04-20T04:06:12.447Z,3.29
2023-04-20T04:08:38.891Z,3.27
2023-04-20T04:11:05.363Z,3.28
2023-04-20T04:13:34.438Z,3.29
2023-04-20T04:16:02.108Z,3.32
2023-04-20T04:18:32.313Z,3.35
2023-04-20T04:21:05.156Z,3.35
2023-04-20T04:23:34.556Z,3.36
2023-04-20T04:26:17.897Z,3.40
2023-04-20T04:28:45.903Z,3.38
2023-04-20T04:31:21.528Z,3.38
2023-04-20T04:33:48.224Z,3.36
2023-04-20T04:36:28.685Z,3.37
2023-04-20T04:38:57.588Z,3.41
2023-04-20T04:41:25.493Z,3.42
2023-04-20T04:43:54.384Z,3.42
2023-04-20T04:46:27.712Z,3.42
2023-04-20T04:48:56.848Z,3.43
2023-04-20T04:51:24.122Z,3.47
2023-04-20T04:53:50.727Z,3.48
2023-04-20T04:56:18.440Z,3.51
2023-04-20T04:58:45.575Z,3.54
2023-04-20T05:01:12.212Z,3.51
2023-04-20T05:03:38.806Z,3.60
2023-04-20T05:06:05.616Z,3.61
2023-04-20T05:08:32.084Z,3.65
2023-04-20T05:10:58.550Z,3.66
2023-04-20T05:13:25.030Z,3.67
2023-04-20T05:15:51.502Z,3.70
2023-04-20T05:18:18.092Z,3.67
2023-04-20T05:20:44.531Z,3.72
2023-04-20T05:23:11.365Z,3.73
2023-04-20T05:25:37.934Z,3.73
2023-04-20T05:28:04.561Z,3.78
2023-04-20T05:30:31.371Z,3.78
2023-04-20T05:32:57.815Z,3.83
2023-04-20T05:35:24.320Z,3.82
2023-04-20T05:37:50.761Z,3.85
2023-04-20T05:40:17.395Z,3.86
2023-04-20T05:42:44.832Z,3.88
2023-04-20T05:45:11.480Z,3.91
2023-04-20T05:47:37.980Z,3.94
2023-04-20T05:50:04.956Z,3.96
2023-04-20T05:52:31.424Z,3.98
2023-04-20T05:54:59.359Z,4.01
2023-04-20T05:57:26.003Z,4.05
2023-04-20T05:59:52.599Z,4.05
2023-04-20T06:02:19.266Z,4.07
2023-04-20T06:04:46.221Z,4.05
2023-04-20T06:07:12.794Z,4.07
2023-04-20T06:09:39.234Z,4.11
2023-04-20T06:12:05.835Z,4.15
2023-04-20T06:14:32.279Z,4.15
2023-04-20T06:16:58.713Z,4.19
2023-04-20T06:19:25.140Z,4.24
2023-04-20T06:21:51.642Z,4.26
2023-04-20T06:24:18.112Z,4.27
2023-04-20T06:26:44.524Z,4.29
2023-04-20T06:29:10.967Z,4.32
2023-04-20T06:31:37.467Z,4.32
2023-04-20T06:34:04.019Z,4.35
2023-04-20T06:36:31.188Z,4.36
2023-04-20T06:38:57.647Z,4.34
2023-04-20T06:41:24.074Z,4.31
2023-04-20T06:43:50.572Z,4.25
2023-04-20T06:46:17.168Z,4.29
2023-04-20T06:48:43.635Z,4.26
2023-04-20T06:51:12.907Z,4.24
2023-04-20T06:53:39.351Z,4.23
2023-04-20T06:56:06.556Z,4.23
2023-04-20T06:58:32.955Z,4.22
2023-04-20T07:00:59.460Z,4.24
2023-04-20T07:03:25.993Z,4.28
2023-04-20T07:05:52.554Z,4.31
2023-04-20T07:08:18.997Z,4.33
2023-04-20T07:10:45.538Z,4.32
2023-04-20T07:13:11.980Z,4.30
2023-04-20T07:15:38.435Z,4.34
2023-04-20T07:18:05.146Z,4.34
2023-04-20T07:20:31.686Z,4.36
2023-04-20T07:22:58.111Z,4.42
2023-04-20T07:25:25.534Z,4.45
2023-04-20T07:27:51.988Z,4.47
2023-04-20T07:30:18.404Z,4.49
2023-04-20T07:32:45.039Z,4.53
2023-04-20T07:35:11.602Z,4.57
2023-04-20T07:37:38.072Z,4.63
2023-04-20T07:40:06.710Z,4.63
2023-04-20T07:42:34.813Z,4.64
2023-04-20T07:45:01.561Z,4.67
2023-04-20T07:47:28.080Z,4.69
2023-04-20T07:49:54.871Z,4.75
2023-04-20T07:52:21.472Z,4.78
2023-04-20T07:54:48.038Z,4.80
2023-04-20T07:57:15.125Z,4.79
2023-04-20T07:59:41.696Z,4.83
2023-04-20T08:02:08.681Z,4.83
2023-04-20T08:04:38.865Z,4.86
2023-04-20T08:07:05.681Z,4.84
2023-04-20T08:09:32.326Z,4.90
2023-04-20T08:11:58.796Z,4.95
2023-04-20T08:14:25.237Z,5.05
2023-04-20T08:16:51.722Z,5.07
2023-04-20T08:19:18.383Z,5.10
2023-04-20T08:21:45.023Z,5.09
2023-04-20T08:24:12.165Z,5.13
2023-04-20T08:26:39.607Z,5.14
2023-04-20T08:29:06.804Z,5.09
2023-04-20T08:31:33.284Z,5.05
2023-04-20T08:33:59.905Z,4.99
2023-04-20T08:36:26.720Z,4.98
2023-04-20T08:38:57.034Z,4.96
2023-04-20T08:41:25.307Z,4.95
2023-04-20T08:43:51.999Z,4.96
2023-04-20T08:46:19.342Z,5.01
2023-04-20T08:48:48.539Z,5.10
2023-04-20T08:51:17.010Z,5.15
2023-04-20T08:53:44.059Z,5.21
2023-04-20T08:56:10.899Z,5.30
2023-04-20T08:58:42.112Z,5.39
2023-04-20T09:01:10.677Z,5.43
2023-04-20T09:03:39.248Z,5.50
2023-04-20T09:06:07.053Z,5.56
2023-04-20T09:08:38.899Z,5.57
2023-04-20T09:11:05.560Z,5.55
2023-04-20T09:13:32.522Z,5.53
2023-04-20T09:16:10.172Z,5.56
2023-04-20T09:18:37.969Z,5.58
2023-04-20T09:21:08.938Z,5.59
2023-04-20T09:23:35.354Z,5.62
2023-04-20T09:26:01.817Z,5.64
2023-04-20T09:28:41.709Z,5.65
2023-04-20T09:31:18.939Z,5.64
2023-04-20T09:33:45.597Z,5.69
2023-04-20T09:36:12.131Z,5.68
2023-04-20T09:38:38.604Z,5.70
2023-04-20T09:41:06.901Z,5.70
2023-04-20T09:43:35.312Z,5.71
2023-04-20T09:46:03.362Z,5.71
2023-04-20T09:48:32.046Z,5.68
2023-04-20T09:51:01.853Z,5.67
2023-04-20T09:53:30.174Z,5.69
2023-04-20T09:55:58.403Z,5.70
2023-04-20T09:58:24.838Z,5.71
2023-04-20T10:00:51.597Z,5.76
2023-04-20T10:03:19.360Z,5.83
2023-04-20T10:05:46.235Z,5.87
2023-04-20T10:08:12.682Z,5.94
2023-04-20T10:10:49.868Z,6.02
2023-04-20T10:13:19.417Z,6.04
2023-04-20T10:15:46.260Z,6.07
2023-04-20T10:18:21.098Z,6.11
2023-04-20T10:20:47.680Z,6.11
2023-04-20T10:23:15.970Z,6.01
2023-04-20T10:25:44.969Z,6.03
2023-04-20T10:28:11.954Z,5.98
2023-04-20T10:30:51.002Z,5.95
2023-04-20T10:33:18.052Z,5.89
2023-04-20T10:35:56.114Z,5.91
2023-04-20T10:38:33.419Z,5.90
2023-04-20T10:41:10.563Z,5.93
2023-04-20T10:43:43.715Z,5.99
2023-04-20T10:46:24.481Z,5.97
2023-04-20T10:48:51.702Z,5.93
2023-04-20T10:51:18.930Z,5.95
2023-04-20T10:53:45.480Z,5.99
2023-04-20T10:56:11.996Z,5.99
2023-04-20T10:58:38.568Z,6.02
2023-04-20T11:01:05.309Z,6.06
2023-04-20T11:03:34.310Z,6.11
2023-04-20T11:06:02.553Z,6.10
2023-04-20T11:08:43.139Z,6.07
2023-04-20T11:11:19.809Z,6.01
2023-04-20T11:13:47.117Z,5.96
2023-04-20T11:16:16.418Z,5.97
2023-04-20T11:18:56.406Z,5.97
2023-04-20T11:21:22.868Z,5.98
2023-04-20T11:23:50.360Z,5.98
2023-04-20T11:26:17.093Z,5.97
2023-04-20T11:28:55.919Z,5.99
2023-04-20T11:31:23.317Z,5.95
2023-04-20T11:33:50.163Z,5.95
2023-04-20T11:36:24.018Z,5.91
2023-04-20T11:38:51.036Z,5.93
2023-04-20T11:41:17.836Z,5.92
2023-04-20T11:43:45.574Z,5.91
2023-04-20T11:46:16.803Z,5.91
2023-04-20T11:48:43.466Z,5.90
2023-04-20T11:51:09.976Z,5.84
2023-04-20T11:53:37.428Z,5.84
2023-04-20T11:56:04.576Z,5.87
2023-04-20T11:58:31.098Z,5.81
2023-04-20T12:00:57.613Z,5.83
2023-04-20T12:03:24.158Z,5.81
2023-04-20T12:05:51.208Z,5.89
2023-04-20T12:08:17.756Z,5.88
2023-04-20T12:10:44.677Z,5.87
2023-04-20T12:13:11.157Z,5.83
2023-04-20T12:15:37.694Z,5.84
2023-04-20T12:18:04.314Z,5.83
2023-04-20T12:20:30.784Z,5.86
2023-04-20T12:22:58.555Z,5.86
2023-04-20T12:25:25.546Z,5.87
2023-04-20T12:27:52.077Z,5.91
2023-04-20T12:30:18.548Z,5.97
2023-04-20T12:32:45.038Z,6.01
2023-04-20T12:35:11.617Z,6.04
2023-04-20T12:37:38.065Z,6.09
2023-04-20T12:40:06.411Z,6.14
2023-04-20T12:42:33.013Z,6.11
2023-04-20T12:44:59.487Z,5.98
2023-04-20T12:47:26.175Z,6.04
2023-04-20T12:49:52.572Z,6.03
2023-04-20T12:52:19.183Z,5.99
2023-04-20T12:54:46.228Z,5.98
2023-04-20T12:57:13.032Z,5.99
2023-04-20T12:59:39.417Z,6.06
2023-04-20T13:02:06.302Z,6.05
2023-04-20T13:04:32.895Z,6.07
2023-04-20T13:06:59.330Z,6.12
2023-04-20T13:09:27.138Z,6.11
2023-04-20T13:11:53.906Z,6.09
2023-04-20T13:14:20.920Z,6.08
2023-04-20T13:16:47.794Z,6.07
2023-04-20T13:19:14.489Z,6.06
2023-04-20T13:21:40.951Z,6.06
2023-04-20T13:24:07.589Z,5.99
2023-04-20T13:26:34.238Z,5.96
2023-04-20T13:29:00.772Z,5.91
2023-04-20T13:31:27.279Z,5.93
2023-04-20T13:33:54.843Z,5.92
2023-04-20T13:36:23.068Z,5.88
2023-04-20T13:38:54.398Z,5.91
2023-04-20T13:41:20.961Z,5.89
2023-04-20T13:43:47.419Z,5.90
2023-04-20T13:46:15.300Z,5.96
2023-04-20T13:48:41.962Z,6.02
2023-04-20T13:51:08.574Z,6.06
2023-04-20T13:53:35.100Z,6.07
2023-04-20T13:56:01.648Z,6.06
2023-04-20T13:58:28.727Z,6.04
2023-04-20T14:00:55.313Z,6.05
2023-04-20T14:03:21.974Z,6.04
2023-04-20T14:05:50.324Z,6.03
2023-04-20T14:08:18.131Z,5.98
2023-04-20T14:10:44.543Z,5.97
2023-04-20T14:13:11.195Z,6.00
2023-04-20T14:15:37.824Z,5.99
2023-04-20T14:18:04.409Z,6.00
2023-04-20T14:20:30.873Z,6.03
2023-04-20T14:22:57.336Z,6.00
2023-04-20T14:25:23.800Z,5.98
2023-04-20T14:27:50.296Z,5.96
2023-04-20T14:30:16.717Z,5.94
2023-04-20T14:32:53.998Z,5.93
2023-04-20T14:35:20.720Z,5.96
2023-04-20T14:37:47.122Z,5.99
2023-04-20T14:40:13.661Z,5.87
2023-04-20T14:42:40.655Z,6.01
2023-04-20T14:45:08.162Z,6.02
2023-04-20T14:47:34.777Z,5.99
2023-04-20T14:50:01.221Z,5.98
2023-04-20T14:52:27.822Z,5.99
2023-04-20T14:54:54.274Z,6.00
2023-04-20T14:57:20.729Z,5.94
2023-04-20T14:59:47.150Z,5.91
2023-04-20T15:02:14.192Z,5.91
2023-04-20T15:04:40.897Z,5.90
2023-04-20T15:07:07.480Z,5.86
2023-04-20T15:09:33.961Z,5.86
2023-04-20T15:12:01.851Z,5.85
2023-04-20T15:14:28.341Z,5.83
2023-04-20T15:16:55.024Z,5.82
2023-04-20T15:19:22.784Z,5.82
2023-04-20T15:21:49.247Z,5.82
2023-04-20T15:24:15.961Z,5.80
2023-04-20T15:26:42.493Z,5.80
2023-04-20T15:29:08.922Z,5.76
2023-04-20T15:31:35.487Z,5.79
2023-04-20T15:34:01.930Z,5.79
2023-04-20T15:36:28.588Z,5.80
2023-04-20T15:38:57.439Z,5.81
2023-04-20T15:41:24.272Z,5.78
2023-04-20T15:43:51.276Z,5.78
2023-04-20T15:46:17.782Z,5.79
2023-04-20T15:48:44.901Z,5.80
2023-04-20T15:51:11.531Z,5.81
2023-04-20T15:53:38.066Z,5.82
2023-04-20T15:56:04.761Z,5.80
2023-04-20T15:58:31.210Z,5.79
2023-04-20T16:00:57.840Z,5.80
2023-04-20T16:03:24.517Z,5.84
2023-04-20T16:05:51.207Z,5.87
2023-04-20T16:08:18.936Z,5.90
2023-04-20T16:10:45.380Z,5.91
2023-04-20T16:13:11.951Z,5.91
2023-04-20T16:15:39.036Z,5.93
2023-04-20T16:18:05.704Z,5.96
2023-04-20T16:20:32.288Z,5.99
2023-04-20T16:22:58.801Z,6.00
2023-04-20T16:25:25.841Z,6.01
2023-04-20T16:27:52.472Z,5.99
2023-04-20T16:30:19.077Z,6.04
2023-04-20T16:32:45.871Z,6.09
2023-04-20T16:35:12.547Z,6.14
2023-04-20T16:37:39.037Z,6.15
2023-04-20T16:40:06.198Z,6.18
2023-04-20T16:42:32.697Z,6.18
2023-04-20T16:45:00.382Z,6.17
2023-04-20T16:47:26.995Z,6.14
2023-04-20T16:49:53.665Z,6.14
2023-04-20T16:52:20.090Z,6.14
2023-04-20T16:54:46.505Z,6.11
2023-04-20T16:57:12.918Z,6.12
2023-04-20T16:59:39.346Z,6.13
2023-04-20T17:02:06.058Z,6.17
2023-04-20T17:04:32.785Z,6.19
2023-04-20T17:06:59.313Z,6.25
2023-04-20T17:09:25.939Z,6.25
2023-04-20T17:11:52.728Z,6.27
2023-04-20T17:14:19.284Z,6.29
2023-04-20T17:16:45.983Z,6.31
2023-04-20T17:19:12.499Z,6.35
2023-04-20T17:21:40.460Z,6.39
2023-04-20T17:24:06.932Z,6.41
2023-04-20T17:26:33.377Z,6.40
2023-04-20T17:29:00.297Z,6.41
2023-04-20T17:31:26.780Z,6.41
2023-04-20T17:33:53.203Z,6.43
2023-04-20T17:36:19.594Z,6.42
2023-04-20T17:38:46.380Z,6.43
2023-04-20T17:41:12.855Z,6.43
2023-04-20T17:43:40.538Z,6.39
2023-04-20T17:46:07.815Z,6.37
2023-04-20T17:48:34.495Z,6.37
2023-04-20T17:51:00.956Z,6.32
2023-04-20T17:53:27.598Z,6.32
2023-04-20T17:55:54.023Z,6.31
2023-04-20T17:58:20.538Z,6.33
2023-04-20T18:00:47.680Z,6.32
2023-04-20T18:03:14.839Z,6.24
2023-04-20T18:05:41.966Z,6.24
2023-04-20T18:08:10.048Z,6.21
2023-04-20T18:10:37.501Z,6.15
2023-04-20T18:13:04.148Z,6.16
2023-04-20T18:15:30.620Z,6.13
2023-04-20T18:17:57.152Z,6.13
2023-04-20T18:20:23.905Z,6.13
2023-04-20T18:22:50.594Z,6.17
2023-04-20T18:25:18.850Z,6.12
2023-04-20T18:27:45.895Z,6.18
2023-04-20T18:30:13.715Z,6.18
2023-04-20T18:32:40.550Z,6.20
2023-04-20T18:35:07.884Z,6.25
2023-04-20T18:37:34.287Z,6.29
2023-04-20T18:40:00.763Z,6.28
2023-04-20T18:42:27.274Z,6.28
2023-04-20T18:44:53.737Z,6.28
2023-04-20T18:47:22.038Z,6.32
2023-04-20T18:49:48.486Z,6.33
2023-04-20T18:52:14.930Z,6.34
2023-04-20T18:54:41.677Z,6.34
2023-04-20T18:57:08.427Z,6.35
2023-04-20T18:59:34.959Z,6.36
2023-04-20T19:02:01.538Z,6.36
2023-04-20T19:04:29.218Z,6.37
2023-04-20T19:06:55.757Z,6.41
2023-04-20T19:09:22.188Z,6.43
2023-04-20T19:11:49.856Z,6.45
2023-04-20T19:14:16.455Z,6.46
2023-04-20T19:16:43.218Z,6.47
2023-04-20T19:19:10.166Z,6.47
2023-04-20T19:21:36.591Z,6.47
2023-04-20T19:24:03.174Z,6.49
2023-04-20T19:26:29.618Z,6.51
2023-04-20T19:28:57.661Z,6.49
2023-04-20T19:31:24.122Z,6.53
2023-04-20T19:33:50.585Z,6.54
2023-04-20T19:36:19.105Z,6.56
2023-04-20T19:38:45.797Z,6.59
2023-04-20T19:41:12.300Z,6.60
2023-04-20T19:43:38.850Z,6.60
2023-04-20T19:46:09.460Z,6.63
2023-04-20T19:48:36.741Z,6.64
2023-04-20T19:51:03.876Z,6.64
2023-04-20T19:53:30.445Z,6.61
2023-04-20T19:55:57.189Z,6.63
2023-04-20T19:58:23.732Z,6.62
2023-04-20T20:00:50.411Z,6.63
2023-04-20T20:03:16.966Z,6.62
2023-04-20T20:05:44.045Z,6.64
2023-04-20T20:08:11.636Z,6.65
2023-04-20T20:10:38.098Z,6.66
2023-04-20T20:13:04.728Z,6.62
2023-04-20T20:15:32.175Z,6.63
2023-04-20T20:17:59.404Z,6.64
2023-04-20T20:20:32.258Z,6.60
2023-04-20T20:22:59.821Z,6.59
2023-04-20T20:25:26.458Z,6.56
2023-04-20T20:27:53.073Z,6.55
2023-04-20T20:30:19.646Z,6.54
2023-04-20T20:32:46.638Z,6.52
2023-04-20T20:35:13.302Z,6.49
2023-04-20T20:37:40.733Z,6.48
2023-04-20T20:40:10.335Z,6.40
2023-04-20T20:42:38.744Z,6.37
2023-04-20T20:45:07.161Z,6.35
2023-04-20T20:47:33.925Z,6.37
2023-04-20T20:50:00.350Z,6.39
2023-04-20T20:52:26.798Z,6.38
2023-04-20T20:54:53.267Z,6.42
2023-04-20T20:57:20.590Z,6.41
2023-04-20T20:59:47.013Z,6.44
2023-04-20T21:02:13.556Z,6.22
2023-04-20T21:04:40.144Z,6.48
2023-04-20T21:07:06.696Z,6.48
2023-04-20T21:09:33.118Z,6.47
2023-04-20T21:12:00.754Z,6.46
2023-04-20T21:14:27.321Z,6.42
2023-04-20T21:16:53.919Z,6.38
2023-04-20T21:19:20.705Z,6.37
2023-04-20T21:21:47.511Z,6.34
2023-04-20T21:24:13.989Z,6.33
2023-04-20T21:26:40.418Z,6.34
2023-04-20T21:29:07.125Z,6.31
2023-04-20T21:31:33.631Z,6.37
2023-04-20T21:34:00.461Z,6.40
2023-04-20T21:36:27.839Z,6.41
2023-04-20T21:38:54.303Z,6.41
2023-04-20T21:41:21.657Z,6.42
2023-04-20T21:43:48.067Z,6.38
2023-04-20T21:46:17.538Z,6.37
2023-04-20T21:48:43.999Z,6.39
2023-04-20T21:51:17.609Z,6.40
2023-04-20T21:53:44.489Z,6.40
2023-04-20T21:56:11.369Z,6.37
2023-04-20T21:58:37.751Z,6.39
2023-04-20T22:01:04.298Z,6.38
2023-04-20T22:03:31.343Z,6.38
2023-04-20T22:05:58.789Z,6.37
2023-04-20T22:08:25.688Z,6.37
2023-04-20T22:10:52.444Z,6.31
2023-04-20T22:13:18.909Z,6.35
2023-04-20T22:15:47.305Z,6.34
2023-04-20T22:18:14.334Z,6.33
2023-04-20T22:20:40.788Z,6.31
2023-04-20T22:23:07.210Z,6.29
2023-04-20T22:25:33.652Z,6.29
2023-04-20T22:28:00.147Z,6.28
2023-04-20T22:30:26.700Z,6.28
2023-04-20T22:32:53.147Z,6.26
2023-04-20T22:35:19.864Z,6.24
2023-04-20T22:37:46.310Z,6.21
2023-04-20T22:40:14.107Z,6.19
2023-04-20T22:42:40.630Z,6.16
2023-04-20T22:45:09.417Z,6.14
2023-04-20T22:47:36.043Z,6.14
2023-04-20T22:50:03.359Z,6.11
2023-04-20T22:52:29.852Z,6.03
2023-04-20T22:54:56.380Z,6.00
2023-04-20T22:57:22.885Z,5.97
2023-04-20T22:59:49.375Z,5.99
2023-04-20T23:02:16.439Z,6.02
2023-04-20T23:04:45.934Z,6.02
2023-04-20T23:07:12.316Z,5.98
2023-04-20T23:09:41.218Z,5.95
2023-04-20T23:12:11.548Z,5.94
2023-04-20T23:14:39.067Z,5.97
2023-04-20T23:17:06.537Z,6.00
2023-04-20T23:19:33.376Z,6.00
2023-04-20T23:22:00.758Z,5.98
2023-04-20T23:24:27.251Z,5.96
2023-04-20T23:26:53.757Z,5.98
2023-04-20T23:29:20.312Z,5.99
2023-04-20T23:31:46.922Z,6.01
2023-04-20T23:34:13.457Z,5.99
2023-04-20T23:36:39.927Z,5.99
2023-04-20T23:39:06.671Z,5.96
2023-04-20T23:41:33.192Z,5.94
2023-04-20T23:43:59.683Z,5.91
2023-04-20T23:46:26.753Z,5.87
2023-04-20T23:48:55.292Z,5.86
2023-04-20T23:51:22.045Z,5.85
2023-04-20T23:53:48.443Z,5.81
2023-04-20T23:56:14.889Z,5.74
2023-04-20T23:58:41.349Z,5.68
